| time (UTC) | temp F | wind direction | speed knots | gust knots | rain 1hr in | rain 24hr in | rain mn in | humidity % | barometer mb |
| 20260502163203 | 70 | 72 | 0.0 | 0.9 | 0.00 | 0.08 | 0.08 | 77 | 1015.5 |
| 20260502162224 | 70 | 12 | 0.0 | 0.9 | 0.00 | 0.08 | 0.08 | 75 | 1015.5 |
| 20260502161204 | 70 | 12 | 0.0 | 0.0 | 0.00 | 0.08 | 0.08 | 73 | 1015.7 |
| 20260502160204 | 70 | 12 | 0.0 | 0.9 | 0.00 | 0.08 | 0.08 | 73 | 1015.8 |
| 20260502151042 | 70 | 355 | 0.0 | 0.9 | 0.00 | 0.08 | 0.08 | 79 | 1016.4 |
| 20260502123731 | 72 | 232 | 2.6 | 7.0 | 0.59 | 0.04 | 0.06 | 65 | 1018.5 |
| 20260502122739 | 75 | 232 | 2.6 | 4.3 | 0.12 | 0.02 | 0.03 | 57 | 1018.2 |
| 20260502120621 | 78 | 234 | 1.7 | 4.3 | 0.00 | 0.00 | 0.00 | 40 | 1018.0 |
| 20260502115552 | 78 | 242 | 1.7 | 4.3 | 0.00 | 0.00 | 0.00 | 40 | 1018.3 |
| 20260502113519 | 79 | 182 | 0.0 | 3.5 | 0.00 | 0.00 | 0.00 | 43 | 1018.5 |
| 20260502112538 | 78 | 140 | 0.9 | 5.2 | 0.00 | 0.00 | 0.00 | 43 | 1018.7 |
| 20260502111509 | 78 | 190 | 0.9 | 3.5 | 0.00 | 0.00 | 0.00 | 45 | 1018.9 |
| 20260502110502 | 77 | 150 | 1.7 | 5.2 | 0.00 | 0.00 | 0.00 | 44 | 1018.9 |
| 20260502105430 | 77 | 171 | 0.9 | 5.2 | 0.00 | 0.00 | 0.00 | 45 | 1019.1 |
| 20260502103223 | 76 | 157 | 0.9 | 6.1 | 0.00 | 0.00 | 0.00 | 46 | 1019.4 |
| 20260502102219 | 76 | 234 | 0.9 | 5.2 | 0.00 | 0.00 | 0.00 | 46 | 1019.5 |
| 20260502101237 | 75 | 198 | 0.0 | 3.5 | 0.00 | 0.00 | 0.00 | 47 | 1019.6 |
| 20260502100300 | 75 | 187 | 0.9 | 3.5 | 0.00 | 0.00 | 0.00 | 46 | 1019.6 |
| 20260502090924 | 73 | 204 | 0.0 | 0.9 | 0.00 | 0.00 | 0.00 | 48 | 1020.1 |
| 20260502071235 | 60 | 164 | 0.0 | 0.9 | 0.00 | 0.00 | 0.00 | 59 | 1020.6 |
| 20260502070201 | 60 | 158 | 0.0 | 3.5 | 0.00 | 0.00 | 0.00 | 58 | 1020.6 |
| 20260502063953 | 59 | 134 | 0.9 | 2.6 | 0.00 | 0.00 | 0.00 | 63 | 1020.5 |
| 20260502062938 | 57 | 183 | 0.0 | 1.7 | 0.00 | 0.00 | 0.00 | 65 | 1020.6 |
| 20260502061911 | 56 | 160 | 0.0 | 0.0 | 0.00 | 0.00 | 0.00 | 66 | 1020.6 |
| 20260502060926 | 55 | 209 | 0.0 | 0.9 | 0.00 | 0.00 | 0.00 | 69 | 1020.7 |
| 20260502055940 | 54 | 237 | 0.0 | 0.9 | 0.00 | 0.00 | 0.00 | 69 | 1020.7 |
| 20260502054943 | 54 | 243 | 0.0 | 0.9 | 0.00 | 0.00 | 0.00 | 70 | 1020.6 |
| 20260502053947 | 52 | 206 | 0.0 | 0.9 | 0.00 | 0.00 | 0.00 | 74 | 1020.5 |
| 20260502052924 | 50 | 114 | 0.0 | 0.0 | 0.00 | 0.00 | 0.00 | 78 | 1020.5 |
| 20260502051858 | 50 | 114 | 0.0 | 0.0 | 0.00 | 0.00 | 0.00 | 78 | 1020.6 |
| 20260502050848 | 49 | 114 | 0.0 | 0.0 | 0.00 | 0.00 | 0.00 | 78 | 1020.7 |
| 20260502045901 | 48 | 114 | 0.0 | 0.0 | 0.00 | 0.00 | 0.00 | 82 | 1020.6 |
| 20260502044905 | 46 | 114 | 0.0 | 0.0 | 0.00 | 0.00 | 0.00 | 83 | 1020.6 |
| 20260502043850 | 45 | 114 | 0.0 | 0.0 | 0.00 | 0.00 | 0.00 | 83 | 1020.5 |
| 20260502042819 | 45 | 114 | 0.0 | 0.0 | 0.00 | 0.00 | 0.00 | 82 | 1020.5 |
| 20260502040736 | 45 | 114 | 0.0 | 0.0 | 0.00 | 0.00 | 0.00 | 82 | 1020.6 |
| 20260502035726 | 45 | 114 | 0.0 | 0.0 | 0.00 | 0.00 | 0.00 | 82 | 1020.6 |
| 20260502031343 | 47 | 114 | 0.0 | 0.0 | 0.00 | 0.00 | 0.00 | 77 | 1020.8 |
| 20260502030332 | 47 | 114 | 0.0 | 0.0 | 0.00 | 0.00 | 0.00 | 76 | 1020.9 |
| 20260502025323 | 48 | 114 | 0.0 | 0.9 | 0.00 | 0.00 | 0.00 | 75 | 1021.0 |
| 20260502024255 | 48 | 114 | 0.0 | 0.0 | 0.00 | 0.00 | 0.00 | 75 | 1021.1 |
| 20260502023234 | 49 | 113 | 0.0 | 0.9 | 0.00 | 0.00 | 0.00 | 74 | 1021.2 |
| 20260502021111 | 50 | 112 | 0.0 | 0.0 | 0.00 | 0.00 | 0.00 | 72 | 1021.2 |
| 20260502014945 | 50 | 112 | 0.0 | 0.0 | 0.00 | 0.00 | 0.00 | 68 | 1021.3 |
| 20260502013958 | 50 | 112 | 0.0 | 0.0 | 0.00 | 0.00 | 0.00 | 69 | 1021.5 |
| 20260502012955 | 51 | 112 | 0.0 | 0.0 | 0.00 | 0.00 | 0.00 | 68 | 1021.5 |
| 20260502012006 | 51 | 112 | 0.0 | 0.0 | 0.00 | 0.00 | 0.00 | 68 | 1021.5 |
| 20260502005849 | 52 | 112 | 0.0 | 0.0 | 0.00 | 0.00 | 0.00 | 65 | 1021.6 |
| 20260502003648 | 52 | 115 | 0.0 | 2.6 | 0.00 | 0.00 | 0.00 | 65 | 1021.8 |
| 20260502002636 | 52 | 123 | 0.0 | 2.6 | 0.00 | 0.00 | 0.00 | 66 | 1021.9 |
| 20260502001628 | 52 | 119 | 0.0 | 2.6 | 0.00 | 0.00 | 0.00 | 66 | 1022.0 |
| 20260502000630 | 52 | 121 | 0.0 | 0.9 | 0.00 | 0.00 | 0.00 | 66 | 1022.2 |
| 20260501235619 | 52 | 121 | 0.0 | 0.0 | 0.00 | 0.00 | 0.00 | 66 | 1022.3 |
| 20260501234551 | 52 | 121 | 0.0 | 0.0 | 0.00 | 0.00 | 0.00 | 66 | 1022.4 |
| 20260501233524 | 52 | 121 | 0.0 | 0.9 | 0.00 | 0.00 | 0.00 | 65 | 1022.6 |
| 20260501232531 | 52 | 121 | 0.0 | 0.0 | 0.00 | 0.00 | 0.00 | 65 | 1022.6 |
| 20260501231556 | 52 | 121 | 0.0 | 0.9 | 0.00 | 0.00 | 0.00 | 66 | 1022.6 |
| 20260501225422 | 52 | 121 | 0.0 | 0.0 | 0.00 | 0.00 | 0.00 | 68 | 1022.6 |
| 20260501224350 | 52 | 121 | 0.0 | 0.0 | 0.00 | 0.00 | 0.00 | 68 | 1022.7 |
| 20260501222233 | 54 | 121 | 0.0 | 0.0 | 0.00 | 0.00 | 0.00 | 67 | 1022.6 |
| 20260501221233 | 55 | 121 | 0.0 | 0.0 | 0.00 | 0.00 | 0.00 | 68 | 1022.7 |
| 20260501220212 | 55 | 121 | 0.0 | 0.0 | 0.00 | 0.00 | 0.00 | 66 | 1022.7 |
| 20260501215231 | 56 | 121 | 0.0 | 0.0 | 0.00 | 0.00 | 0.00 | 65 | 1022.7 |
| 20260501214226 | 56 | 121 | 0.0 | 0.0 | 0.00 | 0.00 | 0.00 | 63 | 1022.7 |
| 20260501213244 | 57 | 121 | 0.0 | 0.0 | 0.00 | 0.00 | 0.00 | 62 | 1022.7 |
| 20260501212305 | 58 | 121 | 0.0 | 0.0 | 0.00 | 0.00 | 0.00 | 57 | 1022.7 |
| 20260501211308 | 58 | 121 | 0.0 | 0.0 | 0.00 | 0.00 | 0.00 | 55 | 1022.7 |
| 20260501205051 | 61 | 121 | 0.0 | 0.0 | 0.00 | 0.00 | 0.00 | 50 | 1022.8 |
| 20260501204116 | 61 | 121 | 0.0 | 0.0 | 0.00 | 0.00 | 0.00 | 46 | 1022.8 |
| 20260501202007 | 62 | 121 | 0.0 | 0.0 | 0.00 | 0.00 | 0.00 | 44 | 1022.8 |
| 20260501200944 | 62 | 121 | 0.0 | 0.0 | 0.00 | 0.00 | 0.00 | 44 | 1022.8 |
| 20260501192535 | 66 | 111 | 0.0 | 0.0 | 0.00 | 0.00 | 0.00 | 40 | 1022.5 |
| 20260501190410 | 67 | 111 | 0.0 | 0.9 | 0.00 | 0.00 | 0.00 | 36 | 1022.5 |
| 20260501185402 | 68 | 111 | 0.0 | 2.6 | 0.00 | 0.00 | 0.00 | 34 | 1022.5 |
| 20260501184348 | 69 | 94 | 0.0 | 5.2 | 0.00 | 0.00 | 0.00 | 33 | 1022.5 |
| 20260501183318 | 70 | 121 | 1.7 | 6.1 | 0.00 | 0.00 | 0.00 | 31 | 1022.4 |
| 20260501182255 | 70 | 82 | 1.7 | 6.1 | 0.00 | 0.00 | 0.00 | 32 | 1022.5 |
| 20260501181242 | 71 | 137 | 1.7 | 5.2 | 0.00 | 0.00 | 0.00 | 31 | 1022.4 |
| 20260501180229 | 71 | 165 | 1.7 | 5.2 | 0.00 | 0.00 | 0.00 | 30 | 1022.4 |
| 20260501175155 | 71 | 119 | 0.9 | 4.3 | 0.00 | 0.00 | 0.00 | 30 | 1022.4 |
| 20260501174125 | 72 | 100 | 0.9 | 6.1 | 0.00 | 0.00 | 0.00 | 30 | 1022.3 |
| 20260501173108 | 72 | 67 | 1.7 | 6.1 | 0.00 | 0.00 | 0.00 | 29 | 1022.3 |
| 20260501172100 | 73 | 175 | 0.9 | 8.7 | 0.00 | 0.00 | 0.00 | 29 | 1022.3 |
| 20260501171124 | 73 | 123 | 1.7 | 8.7 | 0.00 | 0.00 | 0.00 | 28 | 1022.3 |